createdAt,value
2018-11-28T00:01:43.902Z,2.53
2018-11-28T00:04:12.198Z,3.27
2018-11-28T00:06:40.633Z,2.07
2018-11-28T00:09:09.643Z,2.00
2018-11-28T00:11:37.713Z,2.40
2018-11-28T00:14:06.128Z,2.10
2018-11-28T00:16:34.340Z,2.10
2018-11-28T00:19:02.461Z,2.70
2018-11-28T00:21:30.949Z,2.77
2018-11-28T00:23:59.450Z,2.07
2018-11-28T00:26:27.645Z,1.60
2018-11-28T00:28:55.747Z,2.10
2018-11-28T00:31:24.237Z,2.07
2018-11-28T00:33:52.606Z,1.80
2018-11-28T00:36:20.854Z,2.07
2018-11-28T00:38:49.073Z,2.20
2018-11-28T00:41:17.517Z,2.17
2018-11-28T00:43:45.669Z,1.67
2018-11-28T00:46:13.789Z,1.83
2018-11-28T00:48:42.131Z,2.17
2018-11-28T00:51:10.285Z,2.00
2018-11-28T00:53:38.502Z,2.30
2018-11-28T00:56:06.738Z,2.30
2018-11-28T00:58:34.937Z,2.00
2018-11-28T01:01:02.729Z,2.90
2018-11-28T01:03:30.563Z,2.23
2018-11-28T01:05:58.328Z,1.53
2018-11-28T01:08:26.506Z,2.37
2018-11-28T01:10:55.006Z,2.50
2018-11-28T01:13:23.277Z,2.03
2018-11-28T01:15:51.804Z,2.47
2018-11-28T01:18:20.274Z,2.00
2018-11-28T01:20:48.762Z,2.63
2018-11-28T01:23:17.026Z,2.93
2018-11-28T01:25:45.181Z,2.30
2018-11-28T01:28:13.395Z,3.03
2018-11-28T01:30:41.618Z,3.77
2018-11-28T01:33:09.995Z,4.07
2018-11-28T01:35:38.446Z,4.03
2018-11-28T01:38:07.164Z,2.37
2018-11-28T01:40:35.354Z,2.83
2018-11-28T01:43:03.834Z,3.20
2018-11-28T01:45:32.080Z,2.23
2018-11-28T01:47:59.849Z,2.23
2018-11-28T01:50:27.638Z,1.87
2018-11-28T01:52:55.465Z,2.83
2018-11-28T01:55:23.240Z,2.00
2018-11-28T01:57:51.713Z,1.90
2018-11-28T02:00:23.672Z,2.33
2018-11-28T02:02:56.670Z,1.40
2018-11-28T02:05:24.891Z,1.90
2018-11-28T02:07:53.318Z,1.57
2018-11-28T02:10:21.905Z,2.13
2018-11-28T02:12:49.910Z,1.30
2018-11-28T02:15:19.402Z,1.10
2018-11-28T02:17:47.561Z,1.40
2018-11-28T02:20:16.261Z,2.07
2018-11-28T02:22:44.566Z,1.70
2018-11-28T02:25:14.679Z,1.50
2018-11-28T02:27:42.694Z,2.07
2018-11-28T02:30:12.835Z,1.53
2018-11-28T02:32:41.050Z,1.53
2018-11-28T02:35:10.942Z,1.80
2018-11-28T02:37:39.166Z,2.20
2018-11-28T02:40:09.318Z,2.07
2018-11-28T02:42:37.408Z,2.30
2018-11-28T02:45:16.677Z,1.90
2018-11-28T02:47:44.971Z,2.33
2018-11-28T02:50:13.075Z,1.77
2018-11-28T02:52:41.616Z,2.87
2018-11-28T02:55:11.213Z,2.60
2018-11-28T02:57:39.513Z,1.97
2018-11-28T03:00:12.618Z,2.13
2018-11-28T03:02:40.595Z,1.80
2018-11-28T03:05:09.896Z,2.03
2018-11-28T03:07:38.206Z,2.90
2018-11-28T03:10:10.767Z,3.30
2018-11-28T03:12:38.854Z,2.87
2018-11-28T03:15:09.081Z,3.57
2018-11-28T03:17:37.034Z,3.30
2018-11-28T03:20:06.437Z,2.50
2018-11-28T03:22:34.594Z,2.40
2018-11-28T03:25:02.865Z,3.63
2018-11-28T03:27:31.365Z,4.10
2018-11-28T03:29:59.670Z,2.90
2018-11-28T03:32:28.126Z,3.00
2018-11-28T03:34:56.395Z,2.40
2018-11-28T03:37:24.805Z,9.27
2018-11-28T03:39:52.691Z,2.63
2018-11-28T03:42:20.850Z,3.10
2018-11-28T03:44:49.254Z,4.27
2018-11-28T03:47:17.734Z,3.10
2018-11-28T03:49:45.994Z,3.87
2018-11-28T03:52:14.330Z,5.53
2018-11-28T03:54:42.542Z,9.07
2018-11-28T03:57:10.650Z,4.70
2018-11-28T03:59:38.920Z,6.63
2018-11-28T04:02:07.153Z,3.20
2018-11-28T04:04:35.326Z,2.50
2018-11-28T04:07:03.063Z,5.07
2018-11-28T04:09:30.846Z,6.00
2018-11-28T04:11:58.679Z,5.97
2018-11-28T04:14:26.434Z,4.67
2018-11-28T04:16:54.190Z,7.07
2018-11-28T04:19:21.994Z,6.30
2018-11-28T04:21:49.773Z,6.23
2018-11-28T04:24:17.554Z,6.00
2018-11-28T04:26:45.302Z,8.03
2018-11-28T04:29:13.065Z,9.13
2018-11-28T04:31:40.814Z,8.33
2018-11-28T04:34:08.541Z,8.57
2018-11-28T04:36:36.305Z,6.90
2018-11-28T04:39:06.173Z,5.70
2018-11-28T04:41:33.978Z,8.07
2018-11-28T04:44:01.718Z,8.67
2018-11-28T04:46:29.442Z,6.87
2018-11-28T04:48:57.270Z,6.93
2018-11-28T04:51:25.014Z,9.93
2018-11-28T04:53:52.813Z,7.50
2018-11-28T04:56:20.605Z,7.10
2018-11-28T04:58:48.345Z,9.87
2018-11-28T05:01:16.121Z,10.53
2018-11-28T05:03:43.972Z,6.90
2018-11-28T05:06:16.306Z,8.13
2018-11-28T05:08:44.088Z,6.73
2018-11-28T05:11:11.914Z,8.60
2018-11-28T05:13:39.711Z,8.67
2018-11-28T05:16:07.486Z,5.43
2018-11-28T05:18:35.235Z,8.27
2018-11-28T05:21:02.999Z,10.10
2018-11-28T05:23:30.850Z,9.93
2018-11-28T05:25:58.654Z,14.13
2018-11-28T05:28:26.404Z,10.33
2018-11-28T05:30:54.243Z,8.27
2018-11-28T05:33:22.070Z,9.70
2018-11-28T05:35:49.868Z,10.90
2018-11-28T05:38:17.645Z,8.10
2018-11-28T05:40:45.529Z,8.80
2018-11-28T05:43:13.332Z,11.47
2018-11-28T05:45:41.117Z,8.30
2018-11-28T05:48:08.816Z,9.13
2018-11-28T05:50:36.628Z,8.53
2018-11-28T05:53:04.558Z,12.60
2018-11-28T05:55:32.374Z,7.80
2018-11-28T05:58:00.184Z,10.13
2018-11-28T06:00:34.205Z,9.60
2018-11-28T06:03:02.054Z,8.70
2018-11-28T06:05:29.829Z,9.63
2018-11-28T06:07:57.658Z,3.07
2018-11-28T06:10:25.441Z,6.27
2018-11-28T06:12:53.257Z,8.17
2018-11-28T06:15:21.629Z,21.83
2018-11-28T06:17:49.389Z,9.07
2018-11-28T06:20:17.182Z,9.70
2018-11-28T06:22:45.057Z,8.23
2018-11-28T06:25:16.181Z,9.67
2018-11-28T06:27:41.749Z,11.07
2018-11-28T06:30:11.650Z,9.10
2018-11-28T06:32:39.505Z,6.13
2018-11-28T06:35:08.109Z,6.13
2018-11-28T06:37:36.203Z,7.37
2018-11-28T06:40:05.139Z,5.10
2018-11-28T06:42:32.914Z,4.70
2018-11-28T06:45:00.789Z,4.73
2018-11-28T06:47:29.070Z,6.40
2018-11-28T06:49:56.567Z,7.10
2018-11-28T06:52:24.389Z,9.10
2018-11-28T06:54:52.146Z,7.40
2018-11-28T06:57:19.986Z,12.27
2018-11-28T06:59:47.800Z,12.23
2018-11-28T07:02:15.605Z,6.37
2018-11-28T07:04:43.333Z,8.50
2018-11-28T07:07:11.150Z,10.17
2018-11-28T07:09:38.986Z,14.17
2018-11-28T07:12:06.819Z,12.67
2018-11-28T07:14:34.578Z,7.97
2018-11-28T07:17:02.381Z,9.60
2018-11-28T07:19:30.198Z,15.87
2018-11-28T07:21:58.018Z,13.37
2018-11-28T07:24:25.822Z,7.43
2018-11-28T07:26:53.586Z,12.77
2018-11-28T07:29:21.374Z,12.50
2018-11-28T07:31:49.201Z,13.10
2018-11-28T07:34:16.981Z,15.33
2018-11-28T07:36:44.734Z,16.97
2018-11-28T07:39:12.514Z,5.37
2018-11-28T07:41:40.261Z,4.87
2018-11-28T07:44:08.027Z,7.97
2018-11-28T07:46:35.849Z,3.73
2018-11-28T07:49:03.565Z,5.10
2018-11-28T07:51:31.345Z,9.73
2018-11-28T07:53:59.070Z,6.70
2018-11-28T07:56:26.847Z,8.63
2018-11-28T07:58:54.636Z,9.50
2018-11-28T08:01:22.484Z,5.83
2018-11-28T08:03:50.391Z,10.37
2018-11-28T08:06:18.201Z,6.93
2018-11-28T08:08:45.978Z,7.07
2018-11-28T08:11:13.685Z,8.43
2018-11-28T08:13:41.432Z,8.70
2018-11-28T08:16:09.231Z,5.37
2018-11-28T08:18:36.972Z,7.30
2018-11-28T08:21:05.240Z,5.43
2018-11-28T08:23:33.002Z,7.33
2018-11-28T08:26:00.751Z,8.83
2018-11-28T08:28:28.671Z,7.73
2018-11-28T08:30:56.444Z,7.87
2018-11-28T08:33:24.208Z,8.27
2018-11-28T08:35:51.992Z,9.43
2018-11-28T08:38:19.818Z,9.50
2018-11-28T08:40:47.689Z,9.33
2018-11-28T08:43:15.543Z,10.87
2018-11-28T08:45:43.405Z,10.77
2018-11-28T08:48:15.853Z,12.13
2018-11-28T08:50:43.643Z,15.17
2018-11-28T08:53:11.486Z,13.97
2018-11-28T08:55:39.294Z,9.63
2018-11-28T08:58:07.161Z,7.60
2018-11-28T09:00:35.569Z,15.37
2018-11-28T09:03:03.379Z,13.47
2018-11-28T09:05:31.174Z,16.37
2018-11-28T09:07:58.926Z,6.17
2018-11-28T09:10:26.769Z,9.10
2018-11-28T09:12:54.481Z,6.97
2018-11-28T09:15:26.418Z,4.27
2018-11-28T09:17:54.571Z,3.67
2018-11-28T09:20:22.330Z,10.60
2018-11-28T09:22:50.121Z,6.77
2018-11-28T09:25:18.618Z,4.07
2018-11-28T09:27:50.494Z,7.40
2018-11-28T09:30:19.114Z,6.00
2018-11-28T09:32:47.905Z,3.83
2018-11-28T09:35:16.167Z,4.83
2018-11-28T09:37:45.722Z,6.60
2018-11-28T09:40:26.678Z,12.20
2018-11-28T09:42:55.625Z,9.23
2018-11-28T09:45:23.497Z,7.20
2018-11-28T09:47:51.274Z,7.57
2018-11-28T09:50:21.805Z,12.33
2018-11-28T09:52:49.706Z,8.20
2018-11-28T09:55:21.303Z,9.13
2018-11-28T09:57:49.253Z,4.80
2018-11-28T10:00:19.771Z,5.27
2018-11-28T10:02:48.009Z,6.80
2018-11-28T10:05:17.328Z,7.77
2018-11-28T10:07:45.161Z,5.77
2018-11-28T10:10:13.680Z,7.30
2018-11-28T10:12:41.532Z,6.10
2018-11-28T10:15:13.984Z,5.17
2018-11-28T10:17:41.848Z,8.73
2018-11-28T10:20:11.051Z,6.07
2018-11-28T10:22:39.069Z,8.17
2018-11-28T10:25:15.549Z,10.90
2018-11-28T10:27:44.452Z,9.00
2018-11-28T10:30:16.370Z,9.97
2018-11-28T10:32:44.287Z,6.10
2018-11-28T10:35:12.194Z,10.30
2018-11-28T10:37:40.044Z,5.87
2018-11-28T10:40:13.719Z,5.40
2018-11-28T10:42:41.714Z,7.27
2018-11-28T10:45:11.273Z,9.03
2018-11-28T10:47:39.142Z,7.10
2018-11-28T10:50:09.303Z,6.60
2018-11-28T10:52:37.202Z,9.83
2018-11-28T10:55:06.595Z,5.87
2018-11-28T10:57:34.420Z,6.40
2018-11-28T11:00:02.278Z,4.50
2018-11-28T11:02:35.527Z,7.57
2018-11-28T11:05:09.046Z,6.40
2018-11-28T11:10:21.001Z,7.07
2018-11-28T11:12:54.381Z,8.90
2018-11-28T11:15:22.301Z,6.87
2018-11-28T11:17:50.034Z,5.90
2018-11-28T11:20:17.927Z,8.17
2018-11-28T11:22:45.754Z,10.67
2018-11-28T11:25:13.616Z,11.13
2018-11-28T11:27:41.437Z,17.73
2018-11-28T11:30:10.507Z,3.43
2018-11-28T11:32:38.329Z,7.47
2018-11-28T11:35:08.355Z,6.00
2018-11-28T11:37:37.226Z,9.80
2018-11-28T11:40:07.985Z,13.33
2018-11-28T11:42:35.762Z,6.57
2018-11-28T11:45:03.677Z,9.17
2018-11-28T11:47:31.527Z,10.43
2018-11-28T11:49:59.327Z,7.93
2018-11-28T11:52:27.597Z,8.00
2018-11-28T11:54:55.058Z,13.03
2018-11-28T11:57:22.916Z,10.40
2018-11-28T11:59:50.771Z,14.70
2018-11-28T12:02:18.577Z,15.47
2018-11-28T12:04:46.321Z,9.40
2018-11-28T12:07:14.138Z,10.60
2018-11-28T12:09:41.923Z,16.03
2018-11-28T12:12:09.805Z,14.43
2018-11-28T12:14:37.554Z,21.70
2018-11-28T12:17:06.036Z,15.33
2018-11-28T12:19:33.307Z,14.10
2018-11-28T12:22:01.126Z,15.23
2018-11-28T12:24:29.172Z,15.03
2018-11-28T12:26:56.867Z,13.97
2018-11-28T12:29:24.646Z,16.13
2018-11-28T12:31:52.497Z,17.30
2018-11-28T12:34:20.282Z,14.53
2018-11-28T12:36:47.989Z,12.70
2018-11-28T12:39:15.852Z,8.57
2018-11-28T12:41:43.635Z,11.73
2018-11-28T12:44:11.439Z,9.90
2018-11-28T12:46:39.243Z,10.17
2018-11-28T12:49:07.155Z,7.67
2018-11-28T12:51:34.875Z,9.03
2018-11-28T12:54:02.695Z,13.63
2018-11-28T12:56:30.502Z,12.37
2018-11-28T12:58:58.260Z,9.13
2018-11-28T13:01:26.110Z,7.00
2018-11-28T13:03:53.929Z,9.97
2018-11-28T13:06:21.637Z,10.50
2018-11-28T13:08:49.441Z,10.10
2018-11-28T13:11:17.229Z,12.47
2018-11-28T13:13:45.054Z,15.80
2018-11-28T13:16:12.865Z,13.30
2018-11-28T13:18:40.660Z,14.00
2018-11-28T13:21:09.354Z,13.87
2018-11-28T13:23:36.266Z,16.37
2018-11-28T13:26:04.285Z,14.03
2018-11-28T13:28:32.066Z,17.07
2018-11-28T13:30:59.833Z,16.60
2018-11-28T13:33:27.653Z,8.97
2018-11-28T13:35:55.483Z,9.47
2018-11-28T13:38:23.270Z,10.67
2018-11-28T13:40:51.102Z,13.03
2018-11-28T13:43:18.858Z,11.23
2018-11-28T13:45:47.846Z,11.13
2018-11-28T13:48:16.220Z,7.17
2018-11-28T13:50:44.037Z,12.30
2018-11-28T13:53:15.985Z,8.70
2018-11-28T13:56:30.150Z,7.57
2018-11-28T13:58:16.265Z,11.73
2018-11-28T14:00:43.991Z,11.03
2018-11-28T14:03:11.798Z,11.40
2018-11-28T14:05:39.665Z,11.70
2018-11-28T14:08:07.455Z,14.97
2018-11-28T14:10:35.259Z,11.83
2018-11-28T14:13:03.009Z,18.27
2018-11-28T14:15:30.912Z,16.80
2018-11-28T14:17:59.765Z,13.33
2018-11-28T14:20:27.582Z,16.03
2018-11-28T14:22:55.397Z,12.20
2018-11-28T14:25:23.914Z,18.63
2018-11-28T14:27:51.464Z,15.33
2018-11-28T14:30:22.040Z,19.27
2018-11-28T14:32:50.452Z,21.70
2018-11-28T14:35:18.495Z,21.50
2018-11-28T14:37:46.335Z,15.23
2018-11-28T14:40:15.978Z,14.73
2018-11-28T14:42:44.893Z,14.97
2018-11-28T14:45:14.566Z,20.90
2018-11-28T14:47:42.499Z,17.07
2018-11-28T14:50:16.678Z,22.53
2018-11-28T14:52:44.618Z,18.40
2018-11-28T14:55:13.646Z,13.87
2018-11-28T14:57:41.414Z,16.00
2018-11-28T15:00:11.053Z,21.57
2018-11-28T15:02:38.947Z,11.50
2018-11-28T15:05:13.021Z,10.27
2018-11-28T15:07:40.749Z,9.20
2018-11-28T15:10:08.658Z,14.03
2018-11-28T15:12:36.462Z,14.83
2018-11-28T15:15:04.761Z,16.27
2018-11-28T15:17:32.464Z,12.93
2018-11-28T15:20:00.268Z,10.20
2018-11-28T15:22:28.017Z,11.93
2018-11-28T15:24:55.757Z,11.70
2018-11-28T15:27:23.625Z,10.50
2018-11-28T15:29:51.405Z,10.50
2018-11-28T15:32:19.186Z,10.13
2018-11-28T15:34:46.925Z,13.97
2018-11-28T15:37:14.682Z,16.73
2018-11-28T15:39:42.475Z,18.20
2018-11-28T15:42:10.324Z,17.10
2018-11-28T15:44:38.093Z,31.17
2018-11-28T15:47:05.937Z,32.03
2018-11-28T15:49:33.734Z,18.13
2018-11-28T15:52:01.551Z,21.47
2018-11-28T15:54:29.430Z,22.03
2018-11-28T15:56:57.182Z,23.87
2018-11-28T15:59:24.945Z,26.17
2018-11-28T16:01:52.709Z,25.70
2018-11-28T16:04:20.532Z,14.50
2018-11-28T16:06:48.278Z,18.63
2018-11-28T16:09:21.485Z,28.27
2018-11-28T16:11:49.277Z,13.10
2018-11-28T16:14:17.039Z,13.97
2018-11-28T16:16:44.829Z,41.57
2018-11-28T16:19:12.622Z,21.23
2018-11-28T16:21:40.418Z,25.57
2018-11-28T16:24:08.237Z,21.97
2018-11-28T16:26:35.962Z,37.70
2018-11-28T16:29:03.736Z,30.17
2018-11-28T16:31:31.626Z,33.33
2018-11-28T16:33:59.365Z,31.57
2018-11-28T16:36:27.153Z,19.63
2018-11-28T16:38:54.981Z,17.93
2018-11-28T16:41:22.782Z,42.07
2018-11-28T16:43:50.496Z,37.90
2018-11-28T16:46:18.237Z,105.97
2018-11-28T16:48:46.042Z,84.47
2018-11-28T16:51:13.791Z,124.17
2018-11-28T16:53:41.599Z,35.40
2018-11-28T16:56:09.340Z,38.63
2018-11-28T16:58:37.180Z,41.67
2018-11-28T17:01:05.258Z,46.57
2018-11-28T17:03:33.005Z,33.13
2018-11-28T17:06:00.794Z,33.13
2018-11-28T17:08:28.614Z,26.20
2018-11-28T17:10:56.439Z,17.77
2018-11-28T17:13:24.254Z,29.00
2018-11-28T17:15:52.015Z,28.50
2018-11-28T17:18:19.848Z,26.10
2018-11-28T17:20:47.645Z,25.10
2018-11-28T17:23:15.466Z,15.43
2018-11-28T17:25:43.246Z,18.73
2018-11-28T17:28:11.051Z,20.27
2018-11-28T17:30:38.934Z,33.42
2018-11-28T17:33:06.820Z,36.63
2018-11-28T17:35:34.605Z,33.50
2018-11-28T17:38:02.439Z,29.07
2018-11-28T17:40:30.268Z,51.80
2018-11-28T17:42:58.945Z,43.77
2018-11-28T17:45:27.468Z,54.83
2018-11-28T17:47:55.261Z,26.13
2018-11-28T17:50:24.136Z,25.97
2018-11-28T17:53:00.494Z,27.57
2018-11-28T17:55:29.681Z,27.47
2018-11-28T17:57:57.453Z,38.97
2018-11-28T18:00:25.250Z,36.83
2018-11-28T18:02:53.109Z,24.93
2018-11-28T18:05:20.884Z,25.17
2018-11-28T18:07:48.645Z,12.43
2018-11-28T18:10:18.554Z,31.97
2018-11-28T18:12:57.401Z,21.60
2018-11-28T18:15:25.282Z,25.80
2018-11-28T18:17:54.516Z,30.77
2018-11-28T18:20:22.329Z,22.77
2018-11-28T18:22:50.148Z,23.97
2018-11-28T18:25:18.043Z,28.87
2018-11-28T18:27:45.982Z,28.07
2018-11-28T18:30:13.869Z,26.40
2018-11-28T18:32:41.617Z,74.23
2018-11-28T18:35:10.769Z,22.53
2018-11-28T18:37:38.582Z,26.73
2018-11-28T18:40:08.730Z,16.20
2018-11-28T18:42:36.584Z,28.30
2018-11-28T18:45:07.374Z,13.60
2018-11-28T18:47:35.200Z,16.27
2018-11-28T18:50:03.447Z,23.87
2018-11-28T18:52:31.208Z,23.77
2018-11-28T18:54:59.079Z,30.30
2018-11-28T18:57:26.906Z,39.67
2018-11-28T18:59:54.650Z,24.93
2018-11-28T19:02:22.446Z,36.37
2018-11-28T19:04:50.236Z,20.13
2018-11-28T19:07:18.018Z,26.80
2018-11-28T19:09:49.463Z,24.10
2018-11-28T19:12:17.857Z,33.67
2018-11-28T19:14:45.910Z,13.07
2018-11-28T19:17:13.559Z,19.60
2018-11-28T19:19:41.469Z,17.77
2018-11-28T19:22:09.743Z,18.10
2018-11-28T19:24:37.515Z,18.40
2018-11-28T19:27:05.871Z,19.57
2018-11-28T19:29:33.726Z,21.03
2018-11-28T19:32:01.491Z,20.03
2018-11-28T19:34:29.376Z,21.33
2018-11-28T19:36:57.209Z,22.47
2018-11-28T19:39:25.005Z,21.60
2018-11-28T19:41:52.806Z,16.13
2018-11-28T19:44:20.616Z,14.63
2018-11-28T19:46:48.405Z,14.43
2018-11-28T19:49:16.189Z,17.73
2018-11-28T19:51:43.958Z,21.70
2018-11-28T19:54:11.753Z,23.63
2018-11-28T19:56:39.613Z,7.27
2018-11-28T19:59:07.426Z,11.23
2018-11-28T20:01:35.222Z,11.83
2018-11-28T20:04:03.099Z,16.80
2018-11-28T20:06:30.918Z,15.00
2018-11-28T20:08:58.797Z,10.70
2018-11-28T20:11:26.681Z,9.70
2018-11-28T20:13:54.506Z,18.27
2018-11-28T20:16:22.324Z,14.40
2018-11-28T20:18:50.373Z,14.87
2018-11-28T20:21:18.048Z,16.13
2018-11-28T20:23:45.822Z,15.33
2018-11-28T20:26:13.677Z,18.50
2018-11-28T20:28:41.441Z,18.50
2018-11-28T20:31:09.157Z,13.20
2018-11-28T20:33:36.912Z,13.17
2018-11-28T20:36:06.158Z,19.53
2018-11-28T20:38:34.575Z,11.47
2018-11-28T20:41:02.448Z,18.03
2018-11-28T20:43:30.236Z,12.97
2018-11-28T20:45:58.038Z,15.13
2018-11-28T20:48:25.778Z,13.07
2018-11-28T20:50:53.622Z,14.30
2018-11-28T20:53:21.844Z,15.10
2018-11-28T20:55:49.731Z,12.97
2018-11-28T20:58:17.546Z,15.10
2018-11-28T21:00:45.414Z,13.73
2018-11-28T21:03:13.301Z,9.13
2018-11-28T21:05:41.733Z,15.73
2018-11-28T21:08:09.853Z,14.77
2018-11-28T21:10:39.411Z,6.37
2018-11-28T21:13:08.453Z,13.33
2018-11-28T21:15:36.269Z,12.17
2018-11-28T21:18:04.253Z,11.97
2018-11-28T21:20:32.032Z,10.00
2018-11-28T21:23:02.203Z,12.03
2018-11-28T21:25:30.010Z,12.47
2018-11-28T21:27:57.850Z,6.37
2018-11-28T21:30:25.686Z,6.73
2018-11-28T21:32:54.218Z,6.50
2018-11-28T21:35:30.677Z,8.93
2018-11-28T21:37:58.573Z,8.27
2018-11-28T21:40:26.438Z,9.90
2018-11-28T21:42:54.241Z,9.93
2018-11-28T21:45:22.722Z,6.10
2018-11-28T21:47:50.597Z,7.17
2018-11-28T21:50:19.078Z,9.97
2018-11-28T21:52:47.162Z,10.80
2018-11-28T21:55:16.870Z,6.80
2018-11-28T21:57:44.732Z,10.03
2018-11-28T22:00:13.922Z,9.10
2018-11-28T22:02:41.725Z,9.03
2018-11-28T22:05:10.686Z,10.23
2018-11-28T22:07:38.481Z,8.67
2018-11-28T22:10:14.629Z,8.90
2018-11-28T22:12:42.566Z,8.83
2018-11-28T22:15:15.006Z,10.40
2018-11-28T22:17:59.525Z,12.07
2018-11-28T22:20:27.517Z,11.90
2018-11-28T22:22:55.298Z,16.23
2018-11-28T22:25:24.768Z,12.77
2018-11-28T22:27:52.674Z,14.60
2018-11-28T22:30:23.333Z,12.60
2018-11-28T22:32:51.189Z,9.10
2018-11-28T22:35:18.933Z,12.57
2018-11-28T22:37:46.724Z,12.40
2018-11-28T22:40:22.257Z,11.83
2018-11-28T22:42:50.128Z,9.97
2018-11-28T22:45:20.033Z,15.07
2018-11-28T22:47:47.893Z,10.43
2018-11-28T22:50:15.714Z,16.30
2018-11-28T22:52:43.434Z,15.77
2018-11-28T22:55:12.246Z,16.97
2018-11-28T22:57:40.005Z,12.90
2018-11-28T23:00:13.982Z,14.63
2018-11-28T23:02:53.439Z,14.57
2018-11-28T23:05:22.535Z,16.50
2018-11-28T23:07:50.386Z,10.30
2018-11-28T23:10:18.183Z,15.23
2018-11-28T23:12:46.054Z,12.70
2018-11-28T23:15:14.010Z,14.67
2018-11-28T23:17:41.804Z,13.77
2018-11-28T23:20:10.013Z,16.57
2018-11-28T23:22:37.817Z,12.20
2018-11-28T23:25:07.677Z,12.60
2018-11-28T23:27:35.505Z,9.57
2018-11-28T23:30:03.514Z,11.73
2018-11-28T23:32:31.284Z,13.23
2018-11-28T23:34:59.075Z,12.80
2018-11-28T23:37:26.890Z,11.60
2018-11-28T23:39:54.715Z,9.37
2018-11-28T23:42:22.577Z,10.80
2018-11-28T23:44:50.390Z,11.03
2018-11-28T23:47:18.195Z,10.63
2018-11-28T23:49:46.025Z,8.83
2018-11-28T23:52:13.843Z,10.27
2018-11-28T23:54:41.606Z,9.70
2018-11-28T23:57:09.437Z,9.43
2018-11-28T23:59:37.201Z,9.47
